createdAt,value
2019-01-08T00:01:25.219Z,9.66
2019-01-08T00:03:54.518Z,9.75
2019-01-08T00:06:24.686Z,9.74
2019-01-08T00:08:55.182Z,9.78
2019-01-08T00:11:26.357Z,9.64
2019-01-08T00:13:56.600Z,9.51
2019-01-08T00:16:26.777Z,9.49
2019-01-08T00:18:56.029Z,9.44
2019-01-08T00:21:26.231Z,9.40
2019-01-08T00:23:55.464Z,9.34
2019-01-08T00:26:24.778Z,9.27
2019-01-08T00:28:54.035Z,9.30
2019-01-08T00:31:23.282Z,9.35
2019-01-08T00:33:52.531Z,9.27
2019-01-08T00:36:21.785Z,9.29
2019-01-08T00:38:51.039Z,9.30
2019-01-08T00:41:20.483Z,9.37
2019-01-08T00:43:49.709Z,9.22
2019-01-08T00:46:18.992Z,9.33
2019-01-08T00:48:50.351Z,9.20
2019-01-08T00:51:20.607Z,9.16
2019-01-08T00:53:49.881Z,9.12
2019-01-08T00:56:20.140Z,9.09
2019-01-08T00:58:51.720Z,9.13
2019-01-08T01:01:20.325Z,9.04
2019-01-08T01:03:50.592Z,9.01
2019-01-08T01:06:19.914Z,9.18
2019-01-08T01:08:49.157Z,9.01
2019-01-08T01:11:18.399Z,9.09
2019-01-08T01:13:47.647Z,8.96
2019-01-08T01:16:17.920Z,9.10
2019-01-08T01:18:47.156Z,9.09
2019-01-08T01:21:17.304Z,8.94
2019-01-08T01:23:47.529Z,8.94
2019-01-08T01:26:16.779Z,8.88
2019-01-08T01:28:46.957Z,8.89
2019-01-08T01:31:16.210Z,8.88
2019-01-08T01:33:45.453Z,8.93
2019-01-08T01:36:14.704Z,8.81
2019-01-08T01:38:43.953Z,8.96
2019-01-08T01:41:13.208Z,9.00
2019-01-08T01:43:42.462Z,8.80
2019-01-08T01:46:11.726Z,8.67
2019-01-08T01:48:41.007Z,8.67
2019-01-08T01:51:10.260Z,8.61
2019-01-08T01:53:39.520Z,8.69
2019-01-08T01:56:08.770Z,8.70
2019-01-08T01:58:38.011Z,8.59
2019-01-08T02:01:07.271Z,8.69
2019-01-08T02:03:36.515Z,8.76
2019-01-08T02:06:05.758Z,8.76
2019-01-08T02:08:35.992Z,8.82
2019-01-08T02:11:05.245Z,8.70
2019-01-08T02:13:34.590Z,8.64
2019-01-08T02:16:03.823Z,8.88
2019-01-08T02:18:33.049Z,8.64
2019-01-08T02:21:03.309Z,8.35
2019-01-08T02:23:32.540Z,8.40
2019-01-08T02:26:01.815Z,8.54
2019-01-08T02:28:31.037Z,8.47
2019-01-08T02:31:00.274Z,8.52
2019-01-08T02:33:29.526Z,8.36
2019-01-08T02:35:58.769Z,8.45
2019-01-08T02:38:28.022Z,8.49
2019-01-08T02:40:57.255Z,8.36
2019-01-08T02:43:26.499Z,8.51
2019-01-08T02:45:55.853Z,8.61
2019-01-08T02:48:25.093Z,8.48
2019-01-08T02:50:54.322Z,8.44
2019-01-08T02:53:23.568Z,8.45
2019-01-08T02:55:52.825Z,8.27
2019-01-08T02:58:22.120Z,8.31
2019-01-08T03:00:51.372Z,8.14
2019-01-08T03:03:20.624Z,8.15
2019-01-08T03:05:50.823Z,8.30
2019-01-08T03:08:20.094Z,8.15
2019-01-08T03:10:49.350Z,8.28
2019-01-08T03:13:18.585Z,8.39
2019-01-08T03:15:47.810Z,8.16
2019-01-08T03:18:17.061Z,8.12
2019-01-08T03:20:46.303Z,7.98
2019-01-08T03:23:15.539Z,8.04
2019-01-08T03:25:44.794Z,8.18
2019-01-08T03:28:14.052Z,8.33
2019-01-08T03:30:43.304Z,8.08
2019-01-08T03:33:14.558Z,8.20
2019-01-08T03:35:43.817Z,8.20
2019-01-08T03:38:13.072Z,8.16
2019-01-08T03:40:42.316Z,8.20
2019-01-08T03:43:11.567Z,8.11
2019-01-08T03:45:40.839Z,8.26
2019-01-08T03:48:10.079Z,8.33
2019-01-08T03:50:39.371Z,8.28
2019-01-08T03:53:08.631Z,8.02
2019-01-08T03:55:37.891Z,8.03
2019-01-08T03:58:07.135Z,8.05
2019-01-08T04:00:36.384Z,8.11
2019-01-08T04:03:05.641Z,8.05
2019-01-08T04:05:34.920Z,8.15
2019-01-08T04:08:04.203Z,8.08
2019-01-08T04:10:35.420Z,8.08
2019-01-08T04:13:04.645Z,8.27
2019-01-08T04:15:33.886Z,8.26
2019-01-08T04:18:03.140Z,8.00
2019-01-08T04:20:33.339Z,8.00
2019-01-08T04:23:04.221Z,8.02
2019-01-08T04:25:33.466Z,7.86
2019-01-08T04:28:02.715Z,8.03
2019-01-08T04:30:31.951Z,8.00
2019-01-08T04:33:02.160Z,8.06
2019-01-08T04:35:32.364Z,8.02
2019-01-08T04:38:01.617Z,8.36
2019-01-08T04:40:30.859Z,8.19
2019-01-08T04:43:00.097Z,8.16
2019-01-08T04:45:29.353Z,8.19
2019-01-08T04:47:58.592Z,8.18
2019-01-08T04:50:27.834Z,8.27
2019-01-08T04:52:57.108Z,8.17
2019-01-08T04:55:26.381Z,8.30
2019-01-08T04:57:55.629Z,8.16
2019-01-08T05:00:24.869Z,8.29
2019-01-08T05:02:55.133Z,8.28
2019-01-08T05:05:24.393Z,7.85
2019-01-08T05:07:53.633Z,7.99
2019-01-08T05:10:22.891Z,7.98
2019-01-08T05:12:52.152Z,7.97
2019-01-08T05:15:21.417Z,8.09
2019-01-08T05:17:50.654Z,8.00
2019-01-08T05:20:19.908Z,7.95
2019-01-08T05:22:49.130Z,7.98
2019-01-08T05:25:18.405Z,8.07
2019-01-08T05:27:47.657Z,8.05
2019-01-08T05:30:16.911Z,8.03
2019-01-08T05:32:46.229Z,7.98
2019-01-08T05:35:15.564Z,7.83
2019-01-08T05:37:45.810Z,7.93
2019-01-08T05:40:15.060Z,7.68
2019-01-08T05:42:44.332Z,7.73
2019-01-08T05:45:13.584Z,7.87
2019-01-08T05:47:42.899Z,7.97
2019-01-08T05:50:12.139Z,7.90
2019-01-08T05:52:41.403Z,7.96
2019-01-08T05:55:10.654Z,7.85
2019-01-08T05:57:40.917Z,7.61
2019-01-08T06:00:16.382Z,7.79
2019-01-08T06:02:41.269Z,8.00
2019-01-08T06:05:10.493Z,7.47
2019-01-08T06:07:39.740Z,7.50
2019-01-08T06:10:09.944Z,7.41
2019-01-08T06:12:39.181Z,7.41
2019-01-08T06:15:09.465Z,7.44
2019-01-08T06:17:38.721Z,7.62
2019-01-08T06:20:07.961Z,8.20
2019-01-08T06:22:37.180Z,7.94
2019-01-08T06:25:06.415Z,7.75
2019-01-08T06:27:36.629Z,7.89
2019-01-08T06:30:07.315Z,7.96
2019-01-08T06:32:37.470Z,7.87
2019-01-08T06:35:06.703Z,8.05
2019-01-08T06:37:35.944Z,8.11
2019-01-08T06:40:06.449Z,8.17
2019-01-08T06:42:35.666Z,8.07
2019-01-08T06:45:05.808Z,8.34
2019-01-08T06:47:35.059Z,7.93
2019-01-08T06:50:06.554Z,8.00
2019-01-08T06:52:35.811Z,7.89
2019-01-08T06:55:06.918Z,7.51
2019-01-08T06:57:37.141Z,7.53
2019-01-08T07:00:08.922Z,7.36
2019-01-08T07:02:38.401Z,7.50
2019-01-08T07:05:07.721Z,7.37
2019-01-08T07:07:37.057Z,7.49
2019-01-08T07:10:07.457Z,7.60
2019-01-08T07:12:36.707Z,7.65
2019-01-08T07:15:06.344Z,7.71
2019-01-08T07:17:35.598Z,7.73
2019-01-08T07:20:06.288Z,7.90
2019-01-08T07:22:35.566Z,8.09
2019-01-08T07:25:06.068Z,8.09
2019-01-08T07:27:35.326Z,7.61
2019-01-08T07:30:04.730Z,7.65
2019-01-08T07:32:33.995Z,7.73
2019-01-08T07:35:03.240Z,7.74
2019-01-08T07:37:32.518Z,7.67
2019-01-08T07:40:02.751Z,7.84
2019-01-08T07:42:32.967Z,8.11
2019-01-08T07:45:03.245Z,8.18
2019-01-08T07:47:32.515Z,8.01
2019-01-08T07:50:01.770Z,8.00
2019-01-08T07:52:31.006Z,8.12
2019-01-08T07:55:01.224Z,8.22
2019-01-08T07:57:30.452Z,8.05
2019-01-08T07:59:59.719Z,7.98
2019-01-08T08:02:29.930Z,7.94
2019-01-08T08:04:59.194Z,7.98
2019-01-08T08:07:28.425Z,8.07
2019-01-08T08:09:57.690Z,7.93
2019-01-08T08:12:26.930Z,8.07
2019-01-08T08:14:56.314Z,7.97
2019-01-08T08:17:25.534Z,7.86
2019-01-08T08:19:54.783Z,7.80
2019-01-08T08:22:24.029Z,8.06
2019-01-08T08:24:56.048Z,8.12
2019-01-08T08:27:25.235Z,8.16
2019-01-08T08:29:54.470Z,8.16
2019-01-08T08:32:23.730Z,7.93
2019-01-08T08:34:52.978Z,7.82
2019-01-08T08:37:22.243Z,8.00
2019-01-08T08:39:51.467Z,7.99
2019-01-08T08:42:20.735Z,7.80
2019-01-08T08:44:49.967Z,7.75
2019-01-08T08:47:19.235Z,7.91
2019-01-08T08:49:49.381Z,7.99
2019-01-08T08:52:20.544Z,7.96
2019-01-08T08:54:50.753Z,7.83
2019-01-08T08:57:20.026Z,7.82
2019-01-08T08:59:49.274Z,7.93
2019-01-08T09:02:18.519Z,7.83
2019-01-08T09:04:47.758Z,7.70
2019-01-08T09:07:17.035Z,7.71
2019-01-08T09:09:46.294Z,7.94
2019-01-08T09:12:15.547Z,7.92
2019-01-08T09:14:44.799Z,7.86
2019-01-08T09:17:14.035Z,7.95
2019-01-08T09:19:43.298Z,8.00
2019-01-08T09:22:12.535Z,7.91
2019-01-08T09:24:42.788Z,7.90
2019-01-08T09:27:12.015Z,7.79
2019-01-08T09:29:41.279Z,7.87
2019-01-08T09:32:10.522Z,8.13
2019-01-08T09:34:39.778Z,7.94
2019-01-08T09:37:09.007Z,8.14
2019-01-08T09:39:38.245Z,7.86
2019-01-08T09:42:07.496Z,7.91
2019-01-08T09:44:36.753Z,7.84
2019-01-08T09:47:05.988Z,7.81
2019-01-08T09:49:35.269Z,7.78
2019-01-08T09:52:04.529Z,7.70
2019-01-08T09:54:33.782Z,7.68
2019-01-08T09:57:04.020Z,7.73
2019-01-08T09:59:33.261Z,7.62
2019-01-08T10:02:02.504Z,7.68
2019-01-08T10:04:31.757Z,7.78
2019-01-08T10:07:01.011Z,8.10
2019-01-08T10:09:31.220Z,8.22
2019-01-08T10:12:00.477Z,8.04
2019-01-08T10:14:29.717Z,7.79
2019-01-08T10:16:58.987Z,7.84
2019-01-08T10:19:30.170Z,7.84
2019-01-08T10:21:59.442Z,8.01
2019-01-08T10:24:28.682Z,8.10
2019-01-08T10:26:57.962Z,8.14
2019-01-08T10:29:27.228Z,8.15
2019-01-08T10:31:58.402Z,8.41
2019-01-08T10:34:28.622Z,8.23
2019-01-08T10:36:57.859Z,8.35
2019-01-08T10:39:27.112Z,8.17
2019-01-08T10:41:57.359Z,8.40
2019-01-08T10:44:26.602Z,8.41
2019-01-08T10:46:55.909Z,8.32
2019-01-08T10:49:25.171Z,8.26
2019-01-08T10:51:54.427Z,8.28
2019-01-08T10:54:23.667Z,8.25
2019-01-08T10:56:52.914Z,8.09
2019-01-08T10:59:22.206Z,8.11
2019-01-08T11:01:51.448Z,8.09
2019-01-08T11:04:20.701Z,8.12
2019-01-08T11:06:57.904Z,8.08
2019-01-08T11:09:27.189Z,7.84
2019-01-08T11:11:56.434Z,7.78
2019-01-08T11:14:25.695Z,7.73
2019-01-08T11:16:54.955Z,7.59
2019-01-08T11:19:24.232Z,7.66
2019-01-08T11:21:53.505Z,7.73
2019-01-08T11:24:23.764Z,7.89
2019-01-08T11:26:53.022Z,8.01
2019-01-08T11:29:22.262Z,8.02
2019-01-08T11:31:53.495Z,7.93
2019-01-08T11:34:22.754Z,7.94
2019-01-08T11:36:52.043Z,7.93
2019-01-08T11:39:21.314Z,8.05
2019-01-08T11:41:51.560Z,8.00
2019-01-08T11:44:20.795Z,7.95
2019-01-08T11:46:50.041Z,8.12
2019-01-08T11:49:19.294Z,7.95
2019-01-08T11:51:48.522Z,8.01
2019-01-08T11:54:17.785Z,8.41
2019-01-08T11:56:47.035Z,8.09
2019-01-08T11:59:16.278Z,8.17
2019-01-08T12:01:46.180Z,7.93
2019-01-08T12:04:15.443Z,7.97
2019-01-08T12:06:45.657Z,7.70
2019-01-08T12:09:14.906Z,7.54
2019-01-08T12:11:44.161Z,7.58
2019-01-08T12:14:13.417Z,7.69
2019-01-08T12:16:42.718Z,7.53
2019-01-08T12:19:12.857Z,7.55
2019-01-08T12:21:42.126Z,7.67
2019-01-08T12:24:11.379Z,7.97
2019-01-08T12:26:40.634Z,8.39
2019-01-08T12:29:09.879Z,8.11
2019-01-08T12:31:40.169Z,8.09
2019-01-08T12:34:09.421Z,8.17
2019-01-08T12:36:38.672Z,8.22
2019-01-08T12:39:07.915Z,8.37
2019-01-08T12:41:37.586Z,8.52
2019-01-08T12:44:06.827Z,8.36
2019-01-08T12:46:36.073Z,8.28
2019-01-08T12:49:05.336Z,8.27
2019-01-08T12:51:34.560Z,8.15
2019-01-08T12:54:03.803Z,8.24
2019-01-08T12:56:33.115Z,8.09
2019-01-08T12:59:02.618Z,8.22
2019-01-08T13:01:31.892Z,8.34
2019-01-08T13:04:01.133Z,8.38
2019-01-08T13:06:30.408Z,8.52
2019-01-08T13:09:00.642Z,8.39
2019-01-08T13:11:30.126Z,8.34
2019-01-08T13:13:59.367Z,8.41
2019-01-08T13:16:28.615Z,8.45
2019-01-08T13:18:57.880Z,8.47
2019-01-08T13:21:27.134Z,8.67
2019-01-08T13:23:56.398Z,8.44
2019-01-08T13:26:26.643Z,8.43
2019-01-08T13:28:55.893Z,8.33
2019-01-08T13:31:25.143Z,8.15
2019-01-08T13:33:54.405Z,8.13
2019-01-08T13:36:23.644Z,8.33
2019-01-08T13:38:52.912Z,8.35
2019-01-08T13:41:22.176Z,8.50
2019-01-08T13:43:51.436Z,8.49
2019-01-08T13:46:21.669Z,10.07
2019-01-08T13:48:50.990Z,8.57
2019-01-08T13:51:20.229Z,8.35
2019-01-08T13:53:49.468Z,8.16
2019-01-08T13:56:19.697Z,7.93
2019-01-08T13:58:48.926Z,7.89
2019-01-08T14:01:18.172Z,7.76
2019-01-08T14:03:48.408Z,7.68
2019-01-08T14:06:17.847Z,7.62
2019-01-08T14:08:47.358Z,7.64
2019-01-08T14:11:16.621Z,7.80
2019-01-08T14:13:46.044Z,7.70
2019-01-08T14:16:15.291Z,7.77
2019-01-08T14:18:45.424Z,7.80
2019-01-08T14:21:14.700Z,8.10
2019-01-08T14:23:45.886Z,8.10
2019-01-08T14:26:15.126Z,8.19
2019-01-08T14:28:44.382Z,8.17
2019-01-08T14:31:13.705Z,8.09
2019-01-08T14:33:43.910Z,7.95
2019-01-08T14:36:13.151Z,7.92
2019-01-08T14:38:42.401Z,7.93
2019-01-08T14:41:12.625Z,7.66
2019-01-08T14:43:41.860Z,7.65
2019-01-08T14:46:11.103Z,7.77
2019-01-08T14:48:41.194Z,7.67
2019-01-08T14:51:11.388Z,7.64
2019-01-08T14:53:41.622Z,7.71
2019-01-08T14:56:11.901Z,7.55
2019-01-08T14:58:41.167Z,7.67
2019-01-08T15:01:10.486Z,7.50
2019-01-08T15:03:40.741Z,7.49
2019-01-08T15:06:09.999Z,7.45
2019-01-08T15:08:39.277Z,7.54
2019-01-08T15:11:08.534Z,7.44
2019-01-08T15:13:37.785Z,7.49
2019-01-08T15:16:07.095Z,7.55
2019-01-08T15:18:36.359Z,7.58
2019-01-08T15:21:06.551Z,7.54
2019-01-08T15:23:35.790Z,7.45
2019-01-08T15:26:05.054Z,7.56
2019-01-08T15:28:34.374Z,7.60
2019-01-08T15:31:04.566Z,7.65
2019-01-08T15:33:33.805Z,7.63
2019-01-08T15:36:03.056Z,7.66
2019-01-08T15:38:32.280Z,7.87
2019-01-08T15:41:02.480Z,7.60
2019-01-08T15:43:31.729Z,7.89
2019-01-08T15:46:01.049Z,7.76
2019-01-08T15:48:30.284Z,7.74
2019-01-08T15:50:59.535Z,7.87
2019-01-08T15:53:28.788Z,7.64
2019-01-08T15:55:58.049Z,7.79
2019-01-08T15:58:27.293Z,7.74
2019-01-08T16:00:56.541Z,7.82
2019-01-08T16:03:25.786Z,7.92
2019-01-08T16:05:55.020Z,7.70
2019-01-08T16:08:24.258Z,7.72
2019-01-08T16:10:53.515Z,7.66
2019-01-08T16:13:22.580Z,7.59
2019-01-08T16:15:51.842Z,7.69
2019-01-08T16:18:21.094Z,7.64
2019-01-08T16:20:53.314Z,7.71
2019-01-08T16:23:21.263Z,7.64
2019-01-08T16:25:50.508Z,7.64
2019-01-08T16:28:19.795Z,7.73
2019-01-08T16:30:50.035Z,7.65
2019-01-08T16:33:19.282Z,7.65
2019-01-08T16:35:48.583Z,7.58
2019-01-08T16:38:17.852Z,7.83
2019-01-08T16:40:47.093Z,7.78
2019-01-08T16:43:16.355Z,7.73
2019-01-08T16:45:46.535Z,7.74
2019-01-08T16:48:15.788Z,7.67
2019-01-08T16:50:45.034Z,7.65
2019-01-08T16:53:14.303Z,7.69
2019-01-08T16:55:43.525Z,7.68
2019-01-08T16:58:12.773Z,7.69
2019-01-08T17:00:42.009Z,7.85
2019-01-08T17:03:11.329Z,7.73
2019-01-08T17:05:41.577Z,7.71
2019-01-08T17:08:10.866Z,7.62
2019-01-08T17:10:40.079Z,7.63
2019-01-08T17:13:09.352Z,7.67
2019-01-08T17:15:39.518Z,7.69
2019-01-08T17:18:10.745Z,7.63
2019-01-08T17:20:39.992Z,7.62
2019-01-08T17:23:09.276Z,7.62
2019-01-08T17:25:38.538Z,7.68
2019-01-08T17:28:07.795Z,7.52
2019-01-08T17:30:37.030Z,7.57
2019-01-08T17:33:06.260Z,7.50
2019-01-08T17:35:35.523Z,7.43
2019-01-08T17:38:04.765Z,7.54
2019-01-08T17:40:34.974Z,7.42
2019-01-08T17:43:10.077Z,7.70
2019-01-08T17:45:40.314Z,7.95
2019-01-08T17:48:09.562Z,7.73
2019-01-08T17:50:38.810Z,7.53
2019-01-08T17:53:08.030Z,7.39
2019-01-08T17:55:38.227Z,7.13
2019-01-08T17:58:29.796Z,7.33
2019-01-08T18:00:59.317Z,7.62
2019-01-08T18:03:28.585Z,7.41
2019-01-08T18:05:57.835Z,7.69
2019-01-08T18:08:27.238Z,7.52
2019-01-08T18:10:56.514Z,7.46
2019-01-08T18:13:25.782Z,7.49
2019-01-08T18:15:55.993Z,7.41
2019-01-08T18:18:27.235Z,7.37
2019-01-08T18:20:56.475Z,7.29
2019-01-08T18:23:25.734Z,7.25
2019-01-08T18:25:54.978Z,7.36
2019-01-08T18:28:25.140Z,7.25
2019-01-08T18:30:54.384Z,7.49
2019-01-08T18:33:23.638Z,7.36
2019-01-08T18:35:53.139Z,7.30
2019-01-08T18:38:22.371Z,7.39
2019-01-08T18:40:52.564Z,7.42
2019-01-08T18:43:21.817Z,7.35
2019-01-08T18:45:51.988Z,7.32
2019-01-08T18:48:21.228Z,7.32
2019-01-08T18:50:50.483Z,7.46
2019-01-08T18:53:19.816Z,7.30
2019-01-08T18:55:49.069Z,7.35
2019-01-08T18:58:19.234Z,7.44
2019-01-08T19:00:48.542Z,7.05
2019-01-08T19:03:17.797Z,6.85
2019-01-08T19:05:47.152Z,6.85
2019-01-08T19:08:16.424Z,6.62
2019-01-08T19:10:46.644Z,6.25
2019-01-08T19:13:15.964Z,6.01
2019-01-08T19:15:46.216Z,5.83
2019-01-08T19:18:15.484Z,5.68
2019-01-08T19:20:45.692Z,5.81
2019-01-08T19:23:15.913Z,5.84
2019-01-08T19:25:45.153Z,6.03
2019-01-08T19:28:14.421Z,6.01
2019-01-08T19:30:43.660Z,6.15
2019-01-08T19:33:12.911Z,6.12
2019-01-08T19:35:42.147Z,6.37
2019-01-08T19:38:12.348Z,6.40
2019-01-08T19:40:41.578Z,6.43
2019-01-08T19:43:10.831Z,6.62
2019-01-08T19:45:40.077Z,6.56
2019-01-08T19:48:09.472Z,6.78
2019-01-08T19:50:38.699Z,6.76
2019-01-08T19:53:07.946Z,6.75
2019-01-08T19:55:37.198Z,6.67
2019-01-08T19:58:06.420Z,6.84
2019-01-08T20:00:35.662Z,6.84
2019-01-08T20:03:04.917Z,6.72
2019-01-08T20:05:35.159Z,6.83
2019-01-08T20:08:04.522Z,6.82
2019-01-08T20:10:33.744Z,6.75
2019-01-08T20:13:02.983Z,6.77
2019-01-08T20:15:34.195Z,6.80
2019-01-08T20:18:03.444Z,6.79
2019-01-08T20:20:32.688Z,6.82
2019-01-08T20:23:01.926Z,6.81
2019-01-08T20:25:31.167Z,6.78
2019-01-08T20:28:00.423Z,6.71
2019-01-08T20:30:29.662Z,6.87
2019-01-08T20:32:59.971Z,6.85
2019-01-08T20:35:29.297Z,6.81
2019-01-08T20:37:58.545Z,6.65
2019-01-08T20:40:27.787Z,6.72
2019-01-08T20:42:57.065Z,6.77
2019-01-08T20:45:26.289Z,6.58
2019-01-08T20:47:56.519Z,6.50
2019-01-08T20:50:27.665Z,6.50
2019-01-08T20:52:58.054Z,6.52
2019-01-08T20:55:27.348Z,6.52
2019-01-08T20:57:56.586Z,6.57
2019-01-08T21:00:25.836Z,6.61
2019-01-08T21:02:55.094Z,6.77
2019-01-08T21:05:24.381Z,6.65
2019-01-08T21:07:53.685Z,6.64
2019-01-08T21:10:23.014Z,6.60
2019-01-08T21:12:52.267Z,6.60
2019-01-08T21:15:22.446Z,6.52
2019-01-08T21:17:51.690Z,6.69
2019-01-08T21:20:20.946Z,6.63
2019-01-08T21:22:50.185Z,6.55
2019-01-08T21:25:19.473Z,6.60
2019-01-08T21:27:49.228Z,6.86
2019-01-08T21:30:18.476Z,6.60
2019-01-08T21:32:47.714Z,6.53
2019-01-08T21:35:16.969Z,6.66
2019-01-08T21:37:46.230Z,6.54
2019-01-08T21:40:15.460Z,6.48
2019-01-08T21:42:44.688Z,6.84
2019-01-08T21:45:13.919Z,6.56
2019-01-08T21:47:43.182Z,6.63
2019-01-08T21:50:12.427Z,6.53
2019-01-08T21:52:42.632Z,6.30
2019-01-08T21:55:11.960Z,6.28
2019-01-08T21:57:41.203Z,6.33
2019-01-08T22:00:10.451Z,6.49
2019-01-08T22:02:39.714Z,6.35
2019-01-08T22:05:08.940Z,6.40
2019-01-08T22:07:38.264Z,6.40
2019-01-08T22:10:08.486Z,6.26
2019-01-08T22:12:37.735Z,6.18
2019-01-08T22:15:07.396Z,6.10
2019-01-08T22:17:36.636Z,6.30
2019-01-08T22:20:08.740Z,6.18
2019-01-08T22:22:37.942Z,6.44
2019-01-08T22:25:07.248Z,6.15
2019-01-08T22:27:36.493Z,6.29
2019-01-08T22:30:07.485Z,6.32
2019-01-08T22:32:36.716Z,6.34
2019-01-08T22:35:06.123Z,6.28
2019-01-08T22:37:35.361Z,6.25
2019-01-08T22:40:06.655Z,6.49
2019-01-08T22:42:36.889Z,6.25
2019-01-08T22:45:07.189Z,6.24
2019-01-08T22:47:36.429Z,6.19
2019-01-08T22:50:07.529Z,6.10
2019-01-08T22:52:37.938Z,6.01
2019-01-08T22:55:07.220Z,5.95
2019-01-08T22:57:36.463Z,5.97
2019-01-08T23:00:11.489Z,5.83
2019-01-08T23:02:40.742Z,5.85
2019-01-08T23:05:10.956Z,5.92
2019-01-08T23:07:40.587Z,5.92
2019-01-08T23:10:09.835Z,5.67
2019-01-08T23:12:40.059Z,5.64
2019-01-08T23:15:09.391Z,5.71
2019-01-08T23:17:38.635Z,5.60
2019-01-08T23:20:08.342Z,5.61
2019-01-08T23:22:37.588Z,5.72
2019-01-08T23:25:06.870Z,5.94
2019-01-08T23:27:36.104Z,5.70
2019-01-08T23:30:07.595Z,5.64
2019-01-08T23:32:36.832Z,5.91
2019-01-08T23:35:06.828Z,6.17
2019-01-08T23:37:36.077Z,5.60
2019-01-08T23:40:07.663Z,5.65
2019-01-08T23:42:36.951Z,5.65
2019-01-08T23:45:08.316Z,5.53
2019-01-08T23:47:37.594Z,5.72
2019-01-08T23:50:07.471Z,5.58
2019-01-08T23:52:48.825Z,5.69
2019-01-08T23:55:20.094Z,5.35
2019-01-08T23:57:50.608Z,5.42
